sensor_id;sensor_type;location;lat;lon;timestamp;P1;durP1;ratioP1;P2;durP2;ratioP2
4939;SDS011;2485;49.326;7.214;2022-10-31T00:03:34;26.67;;;11.73;;
4939;SDS011;2485;49.326;7.214;2022-10-31T00:06:01;16.77;;;9.37;;
4939;SDS011;2485;49.326;7.214;2022-10-31T00:08:31;19.40;;;9.00;;
4939;SDS011;2485;49.326;7.214;2022-10-31T00:11:13;12.23;;;7.83;;
4939;SDS011;2485;49.326;7.214;2022-10-31T00:13:56;15.33;;;7.00;;
4939;SDS011;2485;49.326;7.214;2022-10-31T00:16:57;12.50;;;6.63;;
4939;SDS011;2485;49.326;7.214;2022-10-31T00:19:27;15.17;;;6.93;;
4939;SDS011;2485;49.326;7.214;2022-10-31T00:38:44;16.60;;;8.17;;
4939;SDS011;2485;49.326;7.214;2022-10-31T00:44:12;17.67;;;8.13;;
4939;SDS011;2485;49.326;7.214;2022-10-31T00:49:49;12.43;;;6.97;;
4939;SDS011;2485;49.326;7.214;2022-10-31T00:52:18;14.57;;;7.10;;
4939;SDS011;2485;49.326;7.214;2022-10-31T01:00:41;13.50;;;6.63;;
4939;SDS011;2485;49.326;7.214;2022-10-31T01:18:01;18.40;;;6.90;;
4939;SDS011;2485;49.326;7.214;2022-10-31T01:20:28;24.20;;;6.83;;
4939;SDS011;2485;49.326;7.214;2022-10-31T01:22:56;16.03;;;6.33;;
4939;SDS011;2485;49.326;7.214;2022-10-31T01:28:26;16.20;;;6.23;;
4939;SDS011;2485;49.326;7.214;2022-10-31T01:30:53;14.77;;;6.13;;
4939;SDS011;2485;49.326;7.214;2022-10-31T01:39:16;17.10;;;6.90;;
4939;SDS011;2485;49.326;7.214;2022-10-31T01:49:32;21.23;;;7.30;;
4939;SDS011;2485;49.326;7.214;2022-10-31T01:55:16;18.20;;;6.97;;
4939;SDS011;2485;49.326;7.214;2022-10-31T01:57:46;21.97;;;7.23;;
4939;SDS011;2485;49.326;7.214;2022-10-31T02:00:15;13.03;;;7.17;;
4939;SDS011;2485;49.326;7.214;2022-10-31T02:02:43;15.00;;;6.13;;
4939;SDS011;2485;49.326;7.214;2022-10-31T02:08:18;12.93;;;6.30;;
4939;SDS011;2485;49.326;7.214;2022-10-31T02:10:49;12.33;;;7.13;;
4939;SDS011;2485;49.326;7.214;2022-10-31T02:16:30;22.70;;;7.37;;
4939;SDS011;2485;49.326;7.214;2022-10-31T02:25:13;16.13;;;6.17;;
4939;SDS011;2485;49.326;7.214;2022-10-31T02:30:27;16.60;;;5.00;;
4939;SDS011;2485;49.326;7.214;2022-10-31T02:36:10;14.60;;;6.13;;
4939;SDS011;2485;49.326;7.214;2022-10-31T02:41:37;19.80;;;7.73;;
4939;SDS011;2485;49.326;7.214;2022-10-31T02:44:09;12.47;;;7.10;;
4939;SDS011;2485;49.326;7.214;2022-10-31T02:46:43;15.43;;;7.70;;
4939;SDS011;2485;49.326;7.214;2022-10-31T02:49:15;19.87;;;8.23;;
4939;SDS011;2485;49.326;7.214;2022-10-31T04:27:14;15.00;;;6.97;;
4939;SDS011;2485;49.326;7.214;2022-10-31T04:32:44;11.63;;;6.70;;
4939;SDS011;2485;49.326;7.214;2022-10-31T04:35:18;14.57;;;6.33;;
4939;SDS011;2485;49.326;7.214;2022-10-31T04:44:06;14.70;;;7.60;;
4939;SDS011;2485;49.326;7.214;2022-10-31T04:46:33;12.20;;;7.60;;
4939;SDS011;2485;49.326;7.214;2022-10-31T04:49:14;19.03;;;7.83;;
4939;SDS011;2485;49.326;7.214;2022-10-31T04:51:42;15.87;;;7.73;;
4939;SDS011;2485;49.326;7.214;2022-10-31T04:54:10;14.63;;;6.97;;
4939;SDS011;2485;49.326;7.214;2022-10-31T04:56:40;18.17;;;7.87;;
4939;SDS011;2485;49.326;7.214;2022-10-31T05:05:28;20.90;;;8.67;;
4939;SDS011;2485;49.326;7.214;2022-10-31T05:20:53;19.17;;;8.60;;
4939;SDS011;2485;49.326;7.214;2022-10-31T05:32:01;17.37;;;8.60;;
4939;SDS011;2485;49.326;7.214;2022-10-31T05:34:48;17.30;;;8.33;;
4939;SDS011;2485;49.326;7.214;2022-10-31T05:46:25;16.23;;;8.50;;
4939;SDS011;2485;49.326;7.214;2022-10-31T05:58:57;17.33;;;8.93;;
4939;SDS011;2485;49.326;7.214;2022-10-31T06:01:27;17.23;;;8.33;;
4939;SDS011;2485;49.326;7.214;2022-10-31T06:03:58;21.93;;;7.97;;
4939;SDS011;2485;49.326;7.214;2022-10-31T06:06:30;14.30;;;8.33;;
4939;SDS011;2485;49.326;7.214;2022-10-31T06:09:34;15.63;;;8.00;;
4939;SDS011;2485;49.326;7.214;2022-10-31T06:12:04;17.07;;;8.70;;
4939;SDS011;2485;49.326;7.214;2022-10-31T06:18:28;25.53;;;9.30;;
4939;SDS011;2485;49.326;7.214;2022-10-31T06:21:07;21.17;;;8.70;;
4939;SDS011;2485;49.326;7.214;2022-10-31T06:23:35;22.00;;;9.33;;
4939;SDS011;2485;49.326;7.214;2022-10-31T06:26:05;28.43;;;8.87;;
4939;SDS011;2485;49.326;7.214;2022-10-31T06:28:33;24.43;;;7.97;;
4939;SDS011;2485;49.326;7.214;2022-10-31T06:31:00;23.77;;;8.53;;
4939;SDS011;2485;49.326;7.214;2022-10-31T06:45:50;16.67;;;9.70;;
4939;SDS011;2485;49.326;7.214;2022-10-31T06:48:21;18.60;;;9.67;;
4939;SDS011;2485;49.326;7.214;2022-10-31T06:51:42;18.17;;;9.00;;
4939;SDS011;2485;49.326;7.214;2022-10-31T06:54:01;19.20;;;10.93;;
4939;SDS011;2485;49.326;7.214;2022-10-31T06:59:56;16.67;;;10.20;;
4939;SDS011;2485;49.326;7.214;2022-10-31T07:02:26;17.20;;;10.00;;
4939;SDS011;2485;49.326;7.214;2022-10-31T07:04:55;21.17;;;10.83;;
4939;SDS011;2485;49.326;7.214;2022-10-31T07:07:23;17.13;;;9.37;;
4939;SDS011;2485;49.326;7.214;2022-10-31T07:10:10;17.13;;;8.80;;
4939;SDS011;2485;49.326;7.214;2022-10-31T07:12:59;18.70;;;9.20;;
4939;SDS011;2485;49.326;7.214;2022-10-31T07:24:26;29.43;;;16.53;;
4939;SDS011;2485;49.326;7.214;2022-10-31T07:39:27;38.37;;;9.00;;
4939;SDS011;2485;49.326;7.214;2022-10-31T07:41:57;20.77;;;8.23;;
4939;SDS011;2485;49.326;7.214;2022-10-31T07:44:29;16.17;;;9.10;;
4939;SDS011;2485;49.326;7.214;2022-10-31T07:46:57;21.27;;;8.13;;
4939;SDS011;2485;49.326;7.214;2022-10-31T07:58:41;18.50;;;8.50;;
4939;SDS011;2485;49.326;7.214;2022-10-31T08:01:22;13.50;;;8.43;;
4939;SDS011;2485;49.326;7.214;2022-10-31T08:06:46;14.50;;;7.50;;
4939;SDS011;2485;49.326;7.214;2022-10-31T08:12:18;13.17;;;7.23;;
4939;SDS011;2485;49.326;7.214;2022-10-31T08:14:49;16.13;;;8.40;;
4939;SDS011;2485;49.326;7.214;2022-10-31T08:23:40;13.27;;;7.57;;
4939;SDS011;2485;49.326;7.214;2022-10-31T08:26:12;11.60;;;7.00;;
4939;SDS011;2485;49.326;7.214;2022-10-31T08:32:03;16.40;;;7.77;;
4939;SDS011;2485;49.326;7.214;2022-10-31T08:34:32;12.40;;;7.67;;
4939;SDS011;2485;49.326;7.214;2022-10-31T08:37:17;15.23;;;7.20;;
4939;SDS011;2485;49.326;7.214;2022-10-31T08:39:47;13.13;;;7.43;;
4939;SDS011;2485;49.326;7.214;2022-10-31T08:45:22;14.97;;;6.80;;
4939;SDS011;2485;49.326;7.214;2022-10-31T08:48:05;16.60;;;7.80;;
4939;SDS011;2485;49.326;7.214;2022-10-31T08:50:37;12.97;;;7.10;;
4939;SDS011;2485;49.326;7.214;2022-10-31T08:58:27;16.80;;;8.20;;
4939;SDS011;2485;49.326;7.214;2022-10-31T09:38:43;12.57;;;5.60;;
4939;SDS011;2485;49.326;7.214;2022-10-31T09:44:18;7.97;;;4.90;;
4939;SDS011;2485;49.326;7.214;2022-10-31T09:46:54;10.23;;;5.83;;
4939;SDS011;2485;49.326;7.214;2022-10-31T09:52:15;12.93;;;5.33;;
4939;SDS011;2485;49.326;7.214;2022-10-31T09:52:41;13.63;;;6.13;;
4939;SDS011;2485;49.326;7.214;2022-10-31T10:18:42;9.90;;;5.70;;
4939;SDS011;2485;49.326;7.214;2022-10-31T10:58:41;11.57;;;5.03;;
4939;SDS011;2485;49.326;7.214;2022-10-31T11:01:14;9.77;;;4.50;;
4939;SDS011;2485;49.326;7.214;2022-10-31T11:03:59;13.07;;;4.53;;
4939;SDS011;2485;49.326;7.214;2022-10-31T11:06:42;12.30;;;4.27;;
4939;SDS011;2485;49.326;7.214;2022-10-31T11:12:19;8.20;;;4.45;;
4939;SDS011;2485;49.326;7.214;2022-10-31T11:18:12;8.70;;;4.10;;
4939;SDS011;2485;49.326;7.214;2022-10-31T11:24:04;12.37;;;3.97;;
4939;SDS011;2485;49.326;7.214;2022-10-31T11:26:42;11.40;;;4.67;;
4939;SDS011;2485;49.326;7.214;2022-10-31T11:32:28;7.83;;;3.93;;
4939;SDS011;2485;49.326;7.214;2022-10-31T11:37:58;9.47;;;4.27;;
4939;SDS011;2485;49.326;7.214;2022-10-31T11:40:27;12.63;;;4.17;;
4939;SDS011;2485;49.326;7.214;2022-10-31T11:48:20;8.83;;;4.57;;
4939;SDS011;2485;49.326;7.214;2022-10-31T11:54:03;11.00;;;4.07;;
4939;SDS011;2485;49.326;7.214;2022-10-31T11:56:47;10.70;;;4.30;;
4939;SDS011;2485;49.326;7.214;2022-10-31T12:33:07;9.77;;;4.23;;
4939;SDS011;2485;49.326;7.214;2022-10-31T12:35:51;6.80;;;4.13;;
4939;SDS011;2485;49.326;7.214;2022-10-31T12:56:40;8.47;;;4.37;;
4939;SDS011;2485;49.326;7.214;2022-10-31T12:59:24;12.30;;;4.20;;
4939;SDS011;2485;49.326;7.214;2022-10-31T13:02:03;6.50;;;3.87;;
4939;SDS011;2485;49.326;7.214;2022-10-31T13:04:39;12.93;;;4.10;;
4939;SDS011;2485;49.326;7.214;2022-10-31T13:09:53;12.57;;;4.40;;
4939;SDS011;2485;49.326;7.214;2022-10-31T13:12:35;5.50;;;3.73;;
4939;SDS011;2485;49.326;7.214;2022-10-31T13:15:11;8.60;;;3.90;;
4939;SDS011;2485;49.326;7.214;2022-10-31T13:17:52;8.47;;;3.90;;
4939;SDS011;2485;49.326;7.214;2022-10-31T13:20:37;9.90;;;4.20;;
4939;SDS011;2485;49.326;7.214;2022-10-31T13:23:24;13.33;;;3.73;;
4939;SDS011;2485;49.326;7.214;2022-10-31T13:26:38;8.27;;;4.50;;
4939;SDS011;2485;49.326;7.214;2022-10-31T13:32:18;7.00;;;3.43;;
4939;SDS011;2485;49.326;7.214;2022-10-31T13:42:51;13.30;;;4.93;;
4939;SDS011;2485;49.326;7.214;2022-10-31T13:57:44;12.33;;;4.60;;
4939;SDS011;2485;49.326;7.214;2022-10-31T14:00:22;9.10;;;3.90;;
4939;SDS011;2485;49.326;7.214;2022-10-31T14:02:49;9.03;;;4.00;;
4939;SDS011;2485;49.326;7.214;2022-10-31T14:05:21;14.40;;;4.67;;
4939;SDS011;2485;49.326;7.214;2022-10-31T14:07:48;10.00;;;4.27;;
4939;SDS011;2485;49.326;7.214;2022-10-31T14:10:22;10.50;;;4.80;;
4939;SDS011;2485;49.326;7.214;2022-10-31T14:12:52;9.37;;;4.40;;
4939;SDS011;2485;49.326;7.214;2022-10-31T14:15:19;8.30;;;3.80;;
4939;SDS011;2485;49.326;7.214;2022-10-31T14:17:46;7.03;;;3.80;;
4939;SDS011;2485;49.326;7.214;2022-10-31T14:20:22;9.20;;;3.63;;
4939;SDS011;2485;49.326;7.214;2022-10-31T14:22:48;14.03;;;4.67;;
4939;SDS011;2485;49.326;7.214;2022-10-31T14:25:25;11.43;;;3.97;;
4939;SDS011;2485;49.326;7.214;2022-10-31T14:27:53;9.13;;;3.90;;
4939;SDS011;2485;49.326;7.214;2022-10-31T14:30:20;11.30;;;4.00;;
4939;SDS011;2485;49.326;7.214;2022-10-31T14:32:49;10.43;;;3.90;;
4939;SDS011;2485;49.326;7.214;2022-10-31T14:35:16;9.30;;;3.90;;
4939;SDS011;2485;49.326;7.214;2022-10-31T14:37:57;6.13;;;3.43;;
4939;SDS011;2485;49.326;7.214;2022-10-31T14:40:27;10.20;;;4.20;;
4939;SDS011;2485;49.326;7.214;2022-10-31T14:45:45;12.87;;;4.57;;
4939;SDS011;2485;49.326;7.214;2022-10-31T14:48:26;14.40;;;4.40;;
4939;SDS011;2485;49.326;7.214;2022-10-31T14:50:56;6.83;;;4.10;;
4939;SDS011;2485;49.326;7.214;2022-10-31T14:53:23;8.10;;;5.00;;
4939;SDS011;2485;49.326;7.214;2022-10-31T14:55:51;9.73;;;5.13;;
4939;SDS011;2485;49.326;7.214;2022-10-31T14:58:19;15.10;;;7.77;;
4939;SDS011;2485;49.326;7.214;2022-10-31T15:00:48;11.27;;;5.27;;
4939;SDS011;2485;49.326;7.214;2022-10-31T15:03:15;12.20;;;5.70;;
4939;SDS011;2485;49.326;7.214;2022-10-31T15:05:42;16.40;;;4.70;;
4939;SDS011;2485;49.326;7.214;2022-10-31T15:08:13;10.50;;;4.30;;
4939;SDS011;2485;49.326;7.214;2022-10-31T15:10:39;8.10;;;4.63;;
4939;SDS011;2485;49.326;7.214;2022-10-31T15:13:13;13.40;;;4.50;;
4939;SDS011;2485;49.326;7.214;2022-10-31T15:15:43;7.80;;;4.17;;
4939;SDS011;2485;49.326;7.214;2022-10-31T15:18:14;9.97;;;4.57;;
4939;SDS011;2485;49.326;7.214;2022-10-31T15:20:44;11.77;;;5.07;;
4939;SDS011;2485;49.326;7.214;2022-10-31T15:23:11;15.43;;;4.90;;
4939;SDS011;2485;49.326;7.214;2022-10-31T15:25:40;10.83;;;4.90;;
4939;SDS011;2485;49.326;7.214;2022-10-31T15:28:12;15.87;;;5.10;;
4939;SDS011;2485;49.326;7.214;2022-10-31T15:30:39;9.10;;;4.57;;
4939;SDS011;2485;49.326;7.214;2022-10-31T15:33:16;10.30;;;4.77;;
4939;SDS011;2485;49.326;7.214;2022-10-31T15:35:53;9.60;;;4.57;;
4939;SDS011;2485;49.326;7.214;2022-10-31T15:38:19;11.03;;;5.03;;
4939;SDS011;2485;49.326;7.214;2022-10-31T15:40:50;8.13;;;4.80;;
4939;SDS011;2485;49.326;7.214;2022-10-31T15:43:17;12.00;;;5.50;;
4939;SDS011;2485;49.326;7.214;2022-10-31T15:45:43;11.83;;;5.90;;
4939;SDS011;2485;49.326;7.214;2022-10-31T15:48:13;9.97;;;5.47;;
4939;SDS011;2485;49.326;7.214;2022-10-31T15:50:46;8.90;;;5.50;;
4939;SDS011;2485;49.326;7.214;2022-10-31T15:53:15;11.10;;;5.20;;
4939;SDS011;2485;49.326;7.214;2022-10-31T15:55:45;12.73;;;5.17;;
4939;SDS011;2485;49.326;7.214;2022-10-31T15:58:13;11.23;;;5.80;;
4939;SDS011;2485;49.326;7.214;2022-10-31T16:00:40;13.83;;;5.70;;
4939;SDS011;2485;49.326;7.214;2022-10-31T16:03:08;12.27;;;5.47;;
4939;SDS011;2485;49.326;7.214;2022-10-31T16:05:37;10.37;;;5.77;;
4939;SDS011;2485;49.326;7.214;2022-10-31T16:10:46;12.33;;;6.47;;
4939;SDS011;2485;49.326;7.214;2022-10-31T16:13:12;14.47;;;5.73;;
4939;SDS011;2485;49.326;7.214;2022-10-31T16:15:45;18.13;;;5.53;;
4939;SDS011;2485;49.326;7.214;2022-10-31T16:18:13;15.80;;;5.63;;
4939;SDS011;2485;49.326;7.214;2022-10-31T16:20:40;9.80;;;5.67;;
4939;SDS011;2485;49.326;7.214;2022-10-31T16:23:11;19.47;;;6.10;;
4939;SDS011;2485;49.326;7.214;2022-10-31T16:25:38;10.83;;;5.77;;
4939;SDS011;2485;49.326;7.214;2022-10-31T16:28:12;14.57;;;7.63;;
4939;SDS011;2485;49.326;7.214;2022-10-31T16:30:40;17.00;;;6.87;;
4939;SDS011;2485;49.326;7.214;2022-10-31T16:33:20;15.60;;;6.60;;
4939;SDS011;2485;49.326;7.214;2022-10-31T16:35:46;11.40;;;6.53;;
4939;SDS011;2485;49.326;7.214;2022-10-31T16:38:13;12.53;;;6.33;;
4939;SDS011;2485;49.326;7.214;2022-10-31T16:40:39;11.03;;;6.70;;
4939;SDS011;2485;49.326;7.214;2022-10-31T16:43:09;11.37;;;6.30;;
4939;SDS011;2485;49.326;7.214;2022-10-31T16:45:37;11.53;;;6.53;;
4939;SDS011;2485;49.326;7.214;2022-10-31T16:48:09;15.93;;;6.20;;
4939;SDS011;2485;49.326;7.214;2022-10-31T16:50:36;14.87;;;7.40;;
4939;SDS011;2485;49.326;7.214;2022-10-31T16:53:05;11.80;;;5.97;;
4939;SDS011;2485;49.326;7.214;2022-10-31T17:32:50;19.47;;;8.30;;
4939;SDS011;2485;49.326;7.214;2022-10-31T17:37:55;18.40;;;8.73;;
4939;SDS011;2485;49.326;7.214;2022-10-31T17:45:46;24.50;;;9.43;;
4939;SDS011;2485;49.326;7.214;2022-10-31T17:48:14;21.67;;;8.83;;
4939;SDS011;2485;49.326;7.214;2022-10-31T17:50:40;17.70;;;8.17;;
4939;SDS011;2485;49.326;7.214;2022-10-31T17:53:07;20.00;;;8.10;;
4939;SDS011;2485;49.326;7.214;2022-10-31T17:55:33;17.23;;;9.17;;
4939;SDS011;2485;49.326;7.214;2022-10-31T17:57:59;13.37;;;8.60;;
4939;SDS011;2485;49.326;7.214;2022-10-31T18:00:26;23.30;;;8.53;;
4939;SDS011;2485;49.326;7.214;2022-10-31T18:02:52;12.53;;;9.07;;
4939;SDS011;2485;49.326;7.214;2022-10-31T18:05:20;23.13;;;10.80;;
4939;SDS011;2485;49.326;7.214;2022-10-31T18:07:48;20.57;;;11.97;;
4939;SDS011;2485;49.326;7.214;2022-10-31T18:10:14;23.27;;;11.30;;
4939;SDS011;2485;49.326;7.214;2022-10-31T18:12:41;21.93;;;11.00;;
4939;SDS011;2485;49.326;7.214;2022-10-31T18:15:08;21.67;;;14.13;;
4939;SDS011;2485;49.326;7.214;2022-10-31T18:17:34;20.00;;;12.60;;
4939;SDS011;2485;49.326;7.214;2022-10-31T18:20:01;21.30;;;13.00;;
4939;SDS011;2485;49.326;7.214;2022-10-31T18:22:28;21.80;;;12.60;;
4939;SDS011;2485;49.326;7.214;2022-10-31T18:24:55;23.70;;;11.30;;
4939;SDS011;2485;49.326;7.214;2022-10-31T18:27:21;33.70;;;12.07;;
4939;SDS011;2485;49.326;7.214;2022-10-31T18:29:48;21.70;;;11.87;;
4939;SDS011;2485;49.326;7.214;2022-10-31T18:32:14;23.03;;;11.90;;
4939;SDS011;2485;49.326;7.214;2022-10-31T18:34:40;20.47;;;12.13;;
4939;SDS011;2485;49.326;7.214;2022-10-31T18:37:07;21.30;;;12.37;;
4939;SDS011;2485;49.326;7.214;2022-10-31T18:39:34;25.07;;;12.50;;
4939;SDS011;2485;49.326;7.214;2022-10-31T18:42:01;23.90;;;11.27;;
4939;SDS011;2485;49.326;7.214;2022-10-31T18:44:27;18.93;;;11.23;;
4939;SDS011;2485;49.326;7.214;2022-10-31T18:46:55;20.80;;;12.17;;
4939;SDS011;2485;49.326;7.214;2022-10-31T18:49:21;19.00;;;12.00;;
4939;SDS011;2485;49.326;7.214;2022-10-31T18:51:48;23.50;;;12.70;;
4939;SDS011;2485;49.326;7.214;2022-10-31T18:54:14;22.77;;;11.67;;
4939;SDS011;2485;49.326;7.214;2022-10-31T18:56:42;28.70;;;14.60;;
4939;SDS011;2485;49.326;7.214;2022-10-31T18:59:08;25.83;;;11.90;;
4939;SDS011;2485;49.326;7.214;2022-10-31T19:01:34;25.37;;;13.37;;
4939;SDS011;2485;49.326;7.214;2022-10-31T19:04:01;19.30;;;11.60;;
4939;SDS011;2485;49.326;7.214;2022-10-31T19:06:27;22.07;;;12.37;;
4939;SDS011;2485;49.326;7.214;2022-10-31T19:08:55;24.67;;;12.13;;
4939;SDS011;2485;49.326;7.214;2022-10-31T19:11:22;18.27;;;11.13;;
4939;SDS011;2485;49.326;7.214;2022-10-31T19:13:49;23.87;;;12.77;;
4939;SDS011;2485;49.326;7.214;2022-10-31T19:16:16;28.07;;;13.43;;
4939;SDS011;2485;49.326;7.214;2022-10-31T19:18:42;22.73;;;12.70;;
4939;SDS011;2485;49.326;7.214;2022-10-31T19:21:10;22.90;;;14.40;;
4939;SDS011;2485;49.326;7.214;2022-10-31T19:23:36;25.77;;;13.13;;
4939;SDS011;2485;49.326;7.214;2022-10-31T19:26:03;25.03;;;12.17;;
4939;SDS011;2485;49.326;7.214;2022-10-31T19:28:30;27.03;;;13.90;;
4939;SDS011;2485;49.326;7.214;2022-10-31T19:30:57;39.53;;;19.50;;
4939;SDS011;2485;49.326;7.214;2022-10-31T19:33:24;56.23;;;28.77;;
4939;SDS011;2485;49.326;7.214;2022-10-31T19:35:53;87.70;;;44.07;;
4939;SDS011;2485;49.326;7.214;2022-10-31T19:38:19;97.77;;;47.60;;
4939;SDS011;2485;49.326;7.214;2022-10-31T19:40:46;67.77;;;36.47;;
4939;SDS011;2485;49.326;7.214;2022-10-31T19:43:12;47.30;;;24.03;;
4939;SDS011;2485;49.326;7.214;2022-10-31T19:45:38;32.27;;;17.90;;
4939;SDS011;2485;49.326;7.214;2022-10-31T19:48:06;31.63;;;19.67;;
4939;SDS011;2485;49.326;7.214;2022-10-31T19:50:32;76.37;;;36.33;;
4939;SDS011;2485;49.326;7.214;2022-10-31T19:52:59;52.13;;;28.17;;
4939;SDS011;2485;49.326;7.214;2022-10-31T19:55:25;163.87;;;82.50;;
4939;SDS011;2485;49.326;7.214;2022-10-31T19:57:52;264.67;;;133.57;;
4939;SDS011;2485;49.326;7.214;2022-10-31T20:00:18;130.17;;;65.23;;
4939;SDS011;2485;49.326;7.214;2022-10-31T20:02:45;69.13;;;36.17;;
4939;SDS011;2485;49.326;7.214;2022-10-31T20:05:12;64.30;;;35.90;;
4939;SDS011;2485;49.326;7.214;2022-10-31T20:07:39;49.50;;;29.00;;
4939;SDS011;2485;49.326;7.214;2022-10-31T20:10:05;56.60;;;25.30;;
4939;SDS011;2485;49.326;7.214;2022-10-31T20:12:32;40.80;;;22.60;;
4939;SDS011;2485;49.326;7.214;2022-10-31T20:14:59;38.53;;;21.47;;
4939;SDS011;2485;49.326;7.214;2022-10-31T20:17:25;43.33;;;22.57;;
4939;SDS011;2485;49.326;7.214;2022-10-31T20:19:51;43.40;;;23.43;;
4939;SDS011;2485;49.326;7.214;2022-10-31T20:22:19;37.30;;;22.07;;
4939;SDS011;2485;49.326;7.214;2022-10-31T20:24:46;40.07;;;20.27;;
4939;SDS011;2485;49.326;7.214;2022-10-31T20:27:12;48.33;;;22.43;;
4939;SDS011;2485;49.326;7.214;2022-10-31T20:29:38;43.10;;;23.13;;
4939;SDS011;2485;49.326;7.214;2022-10-31T20:32:05;43.10;;;22.80;;
4939;SDS011;2485;49.326;7.214;2022-10-31T20:34:31;42.23;;;21.87;;
4939;SDS011;2485;49.326;7.214;2022-10-31T20:36:57;38.97;;;22.30;;
4939;SDS011;2485;49.326;7.214;2022-10-31T20:39:25;41.87;;;22.30;;
4939;SDS011;2485;49.326;7.214;2022-10-31T20:41:51;32.17;;;21.03;;
4939;SDS011;2485;49.326;7.214;2022-10-31T20:44:18;38.60;;;22.40;;
4939;SDS011;2485;49.326;7.214;2022-10-31T20:46:44;46.90;;;23.00;;
4939;SDS011;2485;49.326;7.214;2022-10-31T20:49:10;39.97;;;22.73;;
4939;SDS011;2485;49.326;7.214;2022-10-31T20:51:37;40.63;;;21.53;;
4939;SDS011;2485;49.326;7.214;2022-10-31T20:54:03;37.40;;;22.40;;
4939;SDS011;2485;49.326;7.214;2022-10-31T20:56:32;39.30;;;21.47;;
4939;SDS011;2485;49.326;7.214;2022-10-31T20:58:58;43.50;;;22.30;;
4939;SDS011;2485;49.326;7.214;2022-10-31T21:01:25;40.20;;;19.77;;
4939;SDS011;2485;49.326;7.214;2022-10-31T21:03:52;29.57;;;18.70;;
4939;SDS011;2485;49.326;7.214;2022-10-31T21:06:19;36.73;;;19.43;;
4939;SDS011;2485;49.326;7.214;2022-10-31T21:08:47;33.43;;;18.87;;
4939;SDS011;2485;49.326;7.214;2022-10-31T21:11:14;35.93;;;19.87;;
4939;SDS011;2485;49.326;7.214;2022-10-31T21:13:42;37.33;;;20.10;;
4939;SDS011;2485;49.326;7.214;2022-10-31T21:16:10;34.40;;;20.17;;
4939;SDS011;2485;49.326;7.214;2022-10-31T21:18:37;32.73;;;17.50;;
4939;SDS011;2485;49.326;7.214;2022-10-31T21:21:06;34.70;;;21.27;;
4939;SDS011;2485;49.326;7.214;2022-10-31T21:23:32;41.10;;;19.50;;
4939;SDS011;2485;49.326;7.214;2022-10-31T21:26:02;38.80;;;20.00;;
4939;SDS011;2485;49.326;7.214;2022-10-31T21:28:29;38.30;;;22.80;;
4939;SDS011;2485;49.326;7.214;2022-10-31T21:30:56;40.33;;;22.17;;
4939;SDS011;2485;49.326;7.214;2022-10-31T21:33:24;39.77;;;20.73;;
4939;SDS011;2485;49.326;7.214;2022-10-31T21:35:50;37.80;;;22.37;;
4939;SDS011;2485;49.326;7.214;2022-10-31T21:38:17;41.77;;;20.70;;
4939;SDS011;2485;49.326;7.214;2022-10-31T21:40:44;38.27;;;22.07;;
4939;SDS011;2485;49.326;7.214;2022-10-31T21:43:11;37.10;;;21.50;;
4939;SDS011;2485;49.326;7.214;2022-10-31T21:45:37;42.90;;;24.30;;
4939;SDS011;2485;49.326;7.214;2022-10-31T21:48:05;52.77;;;28.70;;
4939;SDS011;2485;49.326;7.214;2022-10-31T21:50:32;50.20;;;24.97;;
4939;SDS011;2485;49.326;7.214;2022-10-31T21:52:58;42.70;;;22.67;;
4939;SDS011;2485;49.326;7.214;2022-10-31T21:55:45;44.23;;;22.23;;
4939;SDS011;2485;49.326;7.214;2022-10-31T21:58:11;30.47;;;20.77;;
4939;SDS011;2485;49.326;7.214;2022-10-31T22:00:37;35.30;;;21.63;;
4939;SDS011;2485;49.326;7.214;2022-10-31T22:03:05;39.13;;;19.87;;
4939;SDS011;2485;49.326;7.214;2022-10-31T22:05:32;29.40;;;17.60;;
4939;SDS011;2485;49.326;7.214;2022-10-31T22:07:58;37.70;;;18.90;;
4939;SDS011;2485;49.326;7.214;2022-10-31T22:10:25;30.63;;;17.20;;
4939;SDS011;2485;49.326;7.214;2022-10-31T22:12:51;37.33;;;18.10;;
4939;SDS011;2485;49.326;7.214;2022-10-31T22:15:17;31.10;;;16.60;;
4939;SDS011;2485;49.326;7.214;2022-10-31T22:17:46;31.37;;;17.37;;
4939;SDS011;2485;49.326;7.214;2022-10-31T22:20:14;38.07;;;16.10;;
4939;SDS011;2485;49.326;7.214;2022-10-31T22:22:41;27.53;;;13.90;;
4939;SDS011;2485;49.326;7.214;2022-10-31T22:25:07;23.63;;;12.60;;
4939;SDS011;2485;49.326;7.214;2022-10-31T22:27:34;18.47;;;12.40;;
4939;SDS011;2485;49.326;7.214;2022-10-31T22:30:02;31.70;;;14.27;;
4939;SDS011;2485;49.326;7.214;2022-10-31T22:32:30;28.77;;;14.40;;
4939;SDS011;2485;49.326;7.214;2022-10-31T22:34:56;22.43;;;12.90;;
4939;SDS011;2485;49.326;7.214;2022-10-31T22:37:24;19.47;;;11.77;;
4939;SDS011;2485;49.326;7.214;2022-10-31T22:39:50;21.70;;;13.53;;
4939;SDS011;2485;49.326;7.214;2022-10-31T22:42:16;28.23;;;13.93;;
4939;SDS011;2485;49.326;7.214;2022-10-31T22:44:43;25.90;;;13.00;;
4939;SDS011;2485;49.326;7.214;2022-10-31T22:47:09;24.63;;;13.63;;
4939;SDS011;2485;49.326;7.214;2022-10-31T22:49:35;32.60;;;14.77;;
4939;SDS011;2485;49.326;7.214;2022-10-31T22:52:02;23.83;;;13.33;;
4939;SDS011;2485;49.326;7.214;2022-10-31T22:54:30;29.80;;;13.60;;
4939;SDS011;2485;49.326;7.214;2022-10-31T22:56:57;25.00;;;13.70;;
4939;SDS011;2485;49.326;7.214;2022-10-31T22:59:23;23.37;;;11.83;;
4939;SDS011;2485;49.326;7.214;2022-10-31T23:01:49;22.50;;;12.70;;
4939;SDS011;2485;49.326;7.214;2022-10-31T23:04:18;17.70;;;11.93;;
4939;SDS011;2485;49.326;7.214;2022-10-31T23:06:44;23.10;;;13.13;;
4939;SDS011;2485;49.326;7.214;2022-10-31T23:09:12;22.83;;;13.00;;
4939;SDS011;2485;49.326;7.214;2022-10-31T23:11:40;23.90;;;13.70;;
4939;SDS011;2485;49.326;7.214;2022-10-31T23:14:08;22.67;;;14.30;;
4939;SDS011;2485;49.326;7.214;2022-10-31T23:16:34;27.30;;;13.77;;
4939;SDS011;2485;49.326;7.214;2022-10-31T23:19:01;25.67;;;12.47;;
4939;SDS011;2485;49.326;7.214;2022-10-31T23:21:31;29.67;;;15.80;;
4939;SDS011;2485;49.326;7.214;2022-10-31T23:24:08;31.27;;;16.70;;
4939;SDS011;2485;49.326;7.214;2022-10-31T23:26:34;35.00;;;17.27;;
4939;SDS011;2485;49.326;7.214;2022-10-31T23:29:19;36.20;;;17.03;;
4939;SDS011;2485;49.326;7.214;2022-10-31T23:31:46;33.27;;;15.73;;
4939;SDS011;2485;49.326;7.214;2022-10-31T23:34:12;24.17;;;14.97;;
4939;SDS011;2485;49.326;7.214;2022-10-31T23:36:38;20.83;;;13.97;;
4939;SDS011;2485;49.326;7.214;2022-10-31T23:39:05;24.30;;;13.63;;
4939;SDS011;2485;49.326;7.214;2022-10-31T23:41:31;31.00;;;14.63;;
4939;SDS011;2485;49.326;7.214;2022-10-31T23:43:57;26.80;;;13.50;;
4939;SDS011;2485;49.326;7.214;2022-10-31T23:46:25;23.67;;;13.20;;
4939;SDS011;2485;49.326;7.214;2022-10-31T23:48:51;25.10;;;12.90;;
4939;SDS011;2485;49.326;7.214;2022-10-31T23:51:18;19.87;;;10.73;;
4939;SDS011;2485;49.326;7.214;2022-10-31T23:53:44;19.00;;;11.23;;
4939;SDS011;2485;49.326;7.214;2022-10-31T23:56:11;15.53;;;9.90;;
4939;SDS011;2485;49.326;7.214;2022-10-31T23:58:37;19.23;;;10.40;;
